Duke Field,(Eglin Af Aux Nr 3) Airport
KEGI : now visible

Airfield :











YOU CAN JOIN US ON...

 
LOGIN :

Register | Disclaimer

   EN    FR    IT 

 









Legend :    VFR   Marginal VFR   IFR   Intensive IFR   Very Intensive IFR
Visi :
Ceiling :
>= 8 km
>= 3000ft
5 to 8 km
1000 to 3000 ft
1500m to 5 km
500 to 1000 ft
800 to 1500m
200 to 500 ft
< 800m
< 200 ft
Symbols :   Thunderstorms  Fog  Heavy snow  Heavy precipitations  Wind > 20 kt






- Airport Elevation : 191 ft


KEGI - Duke Field,(Eglin Af Aux Nr 3)

CURRENT METAR :
  • 041557Z 29003KT 10SM CLR 32/20 A2999 RMK AO2A SLP154 $

EXPIRED METARs :
  • 041457Z 35004KT 10SM CLR 31/20 A2998 RMK SLP151 52007 $
  • 041358Z 01004KT 10SM CLR 29/20 A2998 RMK AO2A SLP151 $
  • 041311Z 34003KT 10SM CLR 26/21 A2997 RMK AO2A SLP148 $

TAF AMD TAF KEGI
Valid from the 04 at 14:00 until the 05 at 15:00 UTC


041400Z 0414/0515 34006KT 9999 SKC QNH3001INS
BECMG 0414/0415 29009KT 9999 FEW150 QNH3003INS
BECMG 0502/0503 VRB06KT 9999 SKC QNH3000INS TX34/0421Z TN22/0512Z
KZJX FIR / North America



MET'MAP, your aeronautical weather chart ! - Copyright ORBIFLY December 2007 - Disclaimer

ORBIFLY MET'MAP TEAM :

Programming & Development : Alexandra Zaïnal
Concept & original design : Baudouin d'Aumeries
Assistance for programming : Marc-Olivier Méhu
Technical & hardware support : Manuel Goepfert

Contact : metmap@orbifly.com




SOURCES & CREDITS :

   NOAA       Earth
Advisory